createdAt,value
2019-06-26T00:00:01.781Z,8.50
2019-06-26T00:01:37.147Z,7.27
2019-06-26T00:03:12.132Z,7.50
2019-06-26T00:04:47.351Z,7.20
2019-06-26T00:06:22.063Z,7.70
2019-06-26T00:07:57.289Z,8.57
2019-06-26T00:09:31.929Z,7.63
2019-06-26T00:11:08.792Z,14.93
2019-06-26T00:12:43.515Z,7.27
2019-06-26T00:14:18.747Z,8.20
2019-06-26T00:15:53.391Z,7.10
2019-06-26T00:17:28.727Z,7.97
2019-06-26T00:19:03.634Z,9.77
2019-06-26T00:20:38.862Z,7.73
2019-06-26T00:22:13.538Z,7.33
2019-06-26T00:23:48.771Z,7.73
2019-06-26T00:25:23.461Z,6.90
2019-06-26T00:26:58.793Z,7.40
2019-06-26T00:28:34.434Z,7.80
2019-06-26T00:30:11.023Z,7.80
2019-06-26T00:31:45.818Z,7.70
2019-06-26T00:33:22.044Z,7.20
2019-06-26T00:34:57.755Z,7.80
2019-06-26T00:36:33.073Z,7.33
2019-06-26T00:38:07.776Z,7.73
2019-06-26T00:39:42.991Z,8.10
2019-06-26T00:41:17.746Z,7.20
2019-06-26T00:42:52.981Z,7.13
2019-06-26T00:44:27.630Z,7.47
2019-06-26T00:46:02.864Z,8.30
2019-06-26T00:47:37.512Z,7.80
2019-06-26T00:49:12.728Z,7.50
2019-06-26T00:50:47.382Z,7.03
2019-06-26T00:52:22.607Z,7.30
2019-06-26T00:53:57.248Z,7.67
2019-06-26T00:55:32.498Z,7.47
2019-06-26T00:57:07.154Z,7.23
2019-06-26T00:58:42.437Z,7.27
2019-06-26T01:00:17.340Z,7.80
2019-06-26T01:01:52.617Z,7.53
2019-06-26T01:03:27.324Z,10.70
2019-06-26T01:05:03.673Z,7.43
2019-06-26T01:06:44.436Z,7.30
2019-06-26T01:08:19.737Z,8.20
2019-06-26T01:09:54.382Z,8.17
2019-06-26T01:11:30.672Z,7.20
2019-06-26T01:13:05.501Z,8.07
2019-06-26T01:14:40.738Z,7.57
2019-06-26T01:16:15.422Z,7.47
2019-06-26T01:17:50.839Z,7.83
2019-06-26T01:19:25.538Z,7.73
2019-06-26T01:21:00.772Z,7.73
2019-06-26T01:22:35.472Z,7.13
2019-06-26T01:24:11.055Z,7.77
2019-06-26T01:25:45.708Z,8.00
2019-06-26T01:27:21.016Z,6.93
2019-06-26T01:28:55.773Z,7.50
2019-06-26T01:30:31.067Z,8.00
2019-06-26T01:32:05.718Z,7.70
2019-06-26T01:33:40.941Z,7.67
2019-06-26T01:35:15.656Z,7.70
2019-06-26T01:36:50.890Z,7.50
2019-06-26T01:38:25.534Z,7.60
2019-06-26T01:40:00.770Z,7.70
2019-06-26T01:41:35.574Z,8.43
2019-06-26T01:43:10.783Z,7.57
2019-06-26T01:44:45.431Z,7.13
2019-06-26T01:46:20.655Z,7.57
2019-06-26T01:47:55.280Z,7.17
2019-06-26T01:49:30.488Z,7.90
2019-06-26T01:51:05.271Z,7.70
2019-06-26T01:52:41.651Z,7.97
2019-06-26T01:54:16.364Z,7.37
2019-06-26T01:55:51.709Z,8.00
2019-06-26T01:57:26.341Z,7.63
2019-06-26T01:59:01.571Z,7.73
2019-06-26T02:00:36.211Z,7.60
2019-06-26T02:02:11.498Z,7.60
2019-06-26T02:03:46.144Z,7.73
2019-06-26T02:05:21.431Z,8.00
2019-06-26T02:06:56.118Z,7.67
2019-06-26T02:08:31.362Z,8.33
2019-06-26T02:10:06.156Z,7.97
2019-06-26T02:11:41.391Z,8.50
2019-06-26T02:13:16.041Z,7.50
2019-06-26T02:14:51.239Z,7.50
2019-06-26T02:16:25.894Z,7.60
2019-06-26T02:18:01.120Z,7.30
2019-06-26T02:19:36.010Z,8.17
2019-06-26T02:21:11.292Z,8.10
2019-06-26T02:22:49.426Z,7.60
2019-06-26T02:24:23.027Z,8.77
2019-06-26T02:25:57.734Z,7.40
2019-06-26T02:27:33.053Z,7.63
2019-06-26T02:29:07.858Z,7.97
2019-06-26T02:30:44.222Z,7.80
2019-06-26T02:32:18.875Z,7.60
2019-06-26T02:33:54.094Z,8.43
2019-06-26T02:35:28.722Z,8.60
2019-06-26T02:37:03.989Z,8.03
2019-06-26T02:38:38.907Z,7.30
2019-06-26T02:40:15.399Z,8.27
2019-06-26T02:41:50.100Z,7.70
2019-06-26T02:43:25.348Z,8.00
2019-06-26T02:44:59.999Z,7.47
2019-06-26T02:46:35.303Z,8.03
2019-06-26T02:48:09.944Z,8.33
2019-06-26T02:49:45.182Z,8.07
2019-06-26T02:51:19.833Z,8.80
2019-06-26T02:52:55.077Z,7.80
2019-06-26T02:54:29.732Z,8.20
2019-06-26T02:56:05.061Z,8.10
2019-06-26T02:57:39.745Z,7.57
2019-06-26T02:59:14.996Z,8.30
2019-06-26T03:00:49.653Z,8.10
2019-06-26T03:02:24.868Z,7.67
2019-06-26T03:03:59.519Z,8.17
2019-06-26T03:05:34.825Z,8.67
2019-06-26T03:07:09.471Z,7.57
2019-06-26T03:08:44.716Z,8.03
2019-06-26T03:10:19.422Z,8.10
2019-06-26T03:11:54.682Z,8.13
2019-06-26T03:13:29.345Z,8.47
2019-06-26T03:15:09.183Z,7.87
2019-06-26T03:16:41.525Z,8.07
2019-06-26T03:18:16.753Z,7.70
2019-06-26T03:19:51.428Z,7.97
2019-06-26T03:21:26.995Z,7.60
2019-06-26T03:23:01.638Z,8.33
2019-06-26T03:24:36.898Z,8.20
2019-06-26T03:26:11.537Z,8.27
2019-06-26T03:27:46.837Z,7.80
2019-06-26T03:29:21.536Z,8.60
2019-06-26T03:30:56.770Z,8.23
2019-06-26T03:32:31.433Z,8.17
2019-06-26T03:34:06.708Z,8.10
2019-06-26T03:35:41.351Z,8.10
2019-06-26T03:37:16.575Z,7.73
2019-06-26T03:38:51.227Z,8.00
2019-06-26T03:40:27.419Z,8.13
2019-06-26T03:42:02.086Z,8.63
2019-06-26T03:43:37.346Z,8.73
2019-06-26T03:45:25.076Z,8.57
2019-06-26T03:46:49.244Z,8.30
2019-06-26T03:48:23.862Z,7.97
2019-06-26T03:49:59.164Z,8.43
2019-06-26T03:51:33.859Z,8.13
2019-06-26T03:53:09.888Z,8.27
2019-06-26T03:54:44.534Z,7.80
2019-06-26T03:56:19.767Z,7.60
2019-06-26T03:57:54.401Z,8.67
2019-06-26T03:59:29.628Z,8.07
2019-06-26T04:01:04.266Z,8.87
2019-06-26T04:02:39.490Z,8.13
2019-06-26T04:04:14.135Z,7.90
2019-06-26T04:05:49.369Z,8.53
2019-06-26T04:07:24.013Z,8.70
2019-06-26T04:08:59.223Z,8.30
2019-06-26T04:10:34.143Z,8.00
2019-06-26T04:12:09.388Z,7.67
2019-06-26T04:13:44.018Z,8.27
2019-06-26T04:15:19.509Z,9.07
2019-06-26T04:16:54.201Z,8.37
2019-06-26T04:18:29.447Z,8.70
2019-06-26T04:20:04.840Z,8.00
2019-06-26T04:21:40.070Z,8.13
2019-06-26T04:23:15.148Z,8.43
2019-06-26T04:24:50.410Z,8.17
2019-06-26T04:26:25.139Z,7.70
2019-06-26T04:28:00.421Z,8.73
2019-06-26T04:29:35.288Z,7.77
2019-06-26T04:31:10.929Z,8.73
2019-06-26T04:32:45.568Z,7.93
2019-06-26T04:34:20.814Z,8.93
2019-06-26T04:35:55.450Z,8.43
2019-06-26T04:37:30.691Z,9.00
2019-06-26T04:39:07.196Z,8.30
2019-06-26T04:40:42.511Z,8.37
2019-06-26T04:42:17.145Z,8.60
2019-06-26T04:43:52.437Z,8.47
2019-06-26T04:45:27.135Z,8.40
2019-06-26T04:47:03.443Z,8.40
2019-06-26T04:48:38.119Z,8.10
2019-06-26T04:50:13.715Z,9.27
2019-06-26T04:51:48.457Z,8.43
2019-06-26T04:53:23.721Z,8.67
2019-06-26T04:54:58.372Z,8.80
2019-06-26T04:56:33.608Z,9.60
2019-06-26T04:58:08.270Z,7.80
2019-06-26T04:59:43.489Z,8.40
2019-06-26T05:01:18.137Z,8.53
2019-06-26T05:02:53.380Z,8.20
2019-06-26T05:04:28.088Z,7.67
2019-06-26T05:06:03.345Z,8.83
2019-06-26T05:07:37.982Z,8.43
2019-06-26T05:09:13.250Z,8.13
2019-06-26T05:10:47.922Z,10.47
2019-06-26T05:12:23.148Z,8.23
2019-06-26T05:13:57.777Z,7.77
2019-06-26T05:15:33.060Z,7.57
2019-06-26T05:17:07.698Z,8.33
2019-06-26T05:18:42.966Z,9.17
2019-06-26T05:20:18.002Z,8.17
2019-06-26T05:21:53.238Z,7.30
2019-06-26T05:23:27.896Z,7.07
2019-06-26T05:25:03.129Z,6.70
2019-06-26T05:26:37.760Z,6.80
2019-06-26T05:28:12.997Z,6.93
2019-06-26T05:29:48.049Z,8.53
2019-06-26T05:31:23.359Z,7.37
2019-06-26T05:32:58.038Z,8.17
2019-06-26T05:34:33.331Z,7.23
2019-06-26T05:36:09.019Z,8.27
2019-06-26T05:37:44.260Z,6.37
2019-06-26T05:39:18.982Z,7.07
2019-06-26T05:40:54.211Z,7.43
2019-06-26T05:42:28.947Z,7.23
2019-06-26T05:44:04.312Z,6.60
2019-06-26T05:45:38.963Z,6.53
2019-06-26T05:47:14.211Z,6.40
2019-06-26T05:48:48.845Z,7.20
2019-06-26T05:50:24.308Z,6.50
2019-06-26T05:52:02.018Z,6.17
2019-06-26T05:53:35.949Z,6.73
2019-06-26T05:55:11.958Z,6.50
2019-06-26T05:56:47.184Z,6.20
2019-06-26T05:58:21.813Z,5.93
2019-06-26T05:59:57.048Z,6.80
2019-06-26T06:01:31.758Z,6.43
2019-06-26T06:03:07.011Z,6.35
2019-06-26T06:04:41.702Z,6.33
2019-06-26T06:06:16.997Z,6.75
2019-06-26T06:07:51.685Z,6.73
2019-06-26T06:09:26.994Z,7.47
2019-06-26T06:11:01.743Z,7.53
2019-06-26T06:12:37.239Z,6.75
2019-06-26T06:14:11.952Z,7.58
2019-06-26T06:15:47.174Z,6.80
2019-06-26T06:17:21.807Z,7.53
2019-06-26T06:18:57.036Z,7.50
2019-06-26T06:20:37.550Z,6.08
2019-06-26T06:22:12.781Z,7.12
2019-06-26T06:23:47.528Z,6.78
2019-06-26T06:25:22.757Z,6.75
2019-06-26T06:26:57.420Z,8.05
2019-06-26T06:28:32.682Z,10.10
2019-06-26T06:30:07.656Z,6.85
2019-06-26T06:31:44.039Z,7.17
2019-06-26T06:33:18.795Z,6.60
2019-06-26T06:34:54.025Z,6.60
2019-06-26T06:36:28.806Z,7.45
2019-06-26T06:38:04.036Z,6.45
2019-06-26T06:39:38.717Z,8.55
2019-06-26T06:41:13.955Z,8.08
2019-06-26T06:42:48.629Z,7.30
2019-06-26T06:44:23.846Z,7.45
2019-06-26T06:45:58.585Z,7.60
2019-06-26T06:47:33.822Z,6.35
2019-06-26T06:49:09.568Z,6.30
2019-06-26T06:50:44.831Z,6.70
2019-06-26T06:52:19.465Z,7.72
2019-06-26T06:53:54.704Z,6.53
2019-06-26T06:55:29.330Z,8.00
2019-06-26T06:57:04.634Z,8.43
2019-06-26T06:58:39.257Z,6.30
2019-06-26T07:00:14.830Z,7.87
2019-06-26T07:01:49.615Z,7.05
2019-06-26T07:03:24.794Z,6.47
2019-06-26T07:04:59.475Z,6.35
2019-06-26T07:06:34.669Z,6.87
2019-06-26T07:08:09.300Z,6.72
2019-06-26T07:09:44.533Z,6.55
2019-06-26T07:11:19.233Z,6.95
2019-06-26T07:12:54.473Z,8.65
2019-06-26T07:14:30.202Z,7.87
2019-06-26T07:16:05.751Z,8.05
2019-06-26T07:17:40.422Z,7.22
2019-06-26T07:19:15.730Z,7.58
2019-06-26T07:20:50.368Z,7.10
2019-06-26T07:22:25.587Z,6.80
2019-06-26T07:24:00.231Z,7.60
2019-06-26T07:25:35.464Z,7.87
2019-06-26T07:27:10.180Z,6.80
2019-06-26T07:28:45.410Z,7.20
2019-06-26T07:30:21.021Z,8.08
2019-06-26T07:31:56.247Z,9.05
2019-06-26T07:33:31.991Z,7.15
2019-06-26T07:35:07.267Z,6.72
2019-06-26T07:36:41.904Z,7.90
2019-06-26T07:38:17.182Z,7.47
2019-06-26T07:39:51.834Z,7.42
2019-06-26T07:41:27.053Z,6.87
2019-06-26T07:43:01.721Z,6.72
2019-06-26T07:44:37.043Z,7.12
2019-06-26T07:46:11.763Z,6.85
2019-06-26T07:47:47.000Z,7.62
2019-06-26T07:49:21.634Z,7.20
2019-06-26T07:50:56.887Z,7.40
2019-06-26T07:52:31.522Z,7.58
2019-06-26T07:54:06.762Z,7.20
2019-06-26T07:55:41.413Z,6.92
2019-06-26T07:57:16.732Z,7.05
2019-06-26T07:58:51.370Z,7.15
2019-06-26T08:00:26.757Z,7.47
2019-06-26T08:02:01.490Z,7.37
2019-06-26T08:03:36.698Z,7.92
2019-06-26T08:05:11.556Z,8.43
2019-06-26T08:06:46.801Z,7.40
2019-06-26T08:08:21.476Z,7.80
2019-06-26T08:09:56.712Z,7.17
2019-06-26T08:11:31.336Z,7.12
2019-06-26T08:13:06.847Z,7.20
2019-06-26T08:14:41.572Z,7.55
2019-06-26T08:16:16.874Z,7.33
2019-06-26T08:18:00.364Z,7.30
2019-06-26T08:19:28.498Z,7.87
2019-06-26T08:21:11.989Z,7.55
2019-06-26T08:22:41.320Z,7.55
2019-06-26T08:24:17.172Z,7.62
2019-06-26T08:25:52.479Z,6.90
2019-06-26T08:27:27.125Z,7.70
2019-06-26T08:29:02.353Z,7.53
2019-06-26T08:30:37.013Z,8.60
2019-06-26T08:32:12.250Z,10.45
2019-06-26T08:33:46.995Z,8.15
2019-06-26T08:35:22.218Z,7.97
2019-06-26T08:36:56.851Z,8.05
2019-06-26T08:38:32.088Z,7.17
2019-06-26T08:40:07.794Z,9.68
2019-06-26T08:41:43.001Z,8.65
2019-06-26T08:43:17.815Z,8.05
2019-06-26T08:44:53.037Z,8.23
2019-06-26T08:46:27.681Z,12.95
2019-06-26T08:48:16.749Z,8.15
2019-06-26T08:49:39.383Z,8.48
2019-06-26T08:51:14.610Z,7.83
2019-06-26T08:52:49.256Z,8.95
2019-06-26T08:54:24.485Z,8.20
2019-06-26T08:55:59.158Z,8.43
2019-06-26T08:57:34.415Z,8.10
2019-06-26T08:59:09.054Z,8.18
2019-06-26T09:00:44.296Z,8.68
2019-06-26T09:02:18.918Z,8.95
2019-06-26T09:03:54.165Z,8.68
2019-06-26T09:05:28.840Z,8.65
2019-06-26T09:07:04.058Z,8.58
2019-06-26T09:08:38.695Z,8.90
2019-06-26T09:10:14.355Z,9.63
2019-06-26T09:11:49.047Z,8.03
2019-06-26T09:13:24.345Z,9.13
2019-06-26T09:14:59.095Z,8.88
2019-06-26T09:16:34.332Z,10.23
2019-06-26T09:18:08.962Z,9.80
2019-06-26T09:19:44.255Z,9.10
2019-06-26T09:21:18.914Z,9.88
2019-06-26T09:22:54.162Z,9.78
2019-06-26T09:24:28.840Z,9.80
2019-06-26T09:26:04.060Z,9.55
2019-06-26T09:27:39.083Z,11.00
2019-06-26T09:29:14.368Z,9.93
2019-06-26T09:30:49.016Z,9.45
2019-06-26T09:32:24.251Z,9.75
2019-06-26T09:33:58.953Z,9.40
2019-06-26T09:35:34.238Z,9.00
2019-06-26T09:37:08.890Z,9.73
2019-06-26T09:38:45.302Z,9.55
2019-06-26T09:40:20.184Z,9.35
2019-06-26T09:41:55.805Z,10.85
2019-06-26T09:43:30.816Z,8.73
2019-06-26T09:45:06.473Z,9.00
2019-06-26T09:46:41.100Z,10.98
2019-06-26T09:48:16.644Z,9.33
2019-06-26T09:49:51.364Z,9.43
2019-06-26T09:51:26.620Z,8.93
2019-06-26T09:53:05.015Z,9.18
2019-06-26T09:54:38.537Z,8.58
2019-06-26T09:56:13.185Z,8.40
2019-06-26T09:57:48.492Z,11.03
2019-06-26T09:59:23.215Z,8.18
2019-06-26T10:00:58.444Z,7.95
2019-06-26T10:02:33.206Z,8.50
2019-06-26T10:04:08.505Z,9.38
2019-06-26T10:05:43.194Z,7.55
2019-06-26T10:07:18.485Z,8.25
2019-06-26T10:08:54.538Z,7.55
2019-06-26T10:10:29.988Z,8.58
2019-06-26T10:12:04.795Z,8.15
2019-06-26T10:13:40.013Z,7.80
2019-06-26T10:15:15.737Z,8.78
2019-06-26T10:16:51.036Z,8.35
2019-06-26T10:18:25.691Z,9.10
2019-06-26T10:20:00.922Z,7.62
2019-06-26T10:21:35.596Z,8.05
2019-06-26T10:23:10.795Z,7.75
2019-06-26T10:24:45.507Z,7.70
2019-06-26T10:26:20.766Z,8.13
2019-06-26T10:27:55.464Z,7.57
2019-06-26T10:29:30.680Z,11.97
2019-06-26T10:31:05.421Z,7.97
2019-06-26T10:32:40.658Z,9.50
2019-06-26T10:34:15.293Z,7.97
2019-06-26T10:35:50.510Z,9.60
2019-06-26T10:37:25.279Z,9.30
2019-06-26T10:39:00.505Z,8.45
2019-06-26T10:40:36.803Z,9.03
2019-06-26T10:42:12.021Z,7.67
2019-06-26T10:43:46.710Z,8.88
2019-06-26T10:45:22.024Z,8.20
2019-06-26T10:46:56.678Z,7.33
2019-06-26T10:48:31.891Z,5.53
2019-06-26T10:50:06.888Z,5.50
2019-06-26T10:51:42.115Z,5.47
2019-06-26T10:53:16.847Z,5.20
2019-06-26T10:54:52.102Z,5.60
2019-06-26T10:56:28.797Z,5.60
2019-06-26T10:58:03.660Z,6.65
2019-06-26T10:59:38.299Z,6.23
2019-06-26T11:01:13.581Z,5.27
2019-06-26T11:02:48.294Z,6.03
2019-06-26T11:04:23.552Z,5.47
2019-06-26T11:05:58.279Z,5.87
2019-06-26T11:07:36.456Z,8.23
2019-06-26T11:09:09.958Z,5.93
2019-06-26T11:10:45.254Z,5.97
2019-06-26T11:12:19.898Z,6.60
2019-06-26T11:13:55.198Z,8.20
2019-06-26T11:15:29.870Z,6.63
2019-06-26T11:17:05.110Z,7.87
2019-06-26T11:18:39.734Z,7.33
2019-06-26T11:20:15.097Z,7.40
2019-06-26T11:21:49.738Z,7.00
2019-06-26T11:23:25.288Z,8.37
2019-06-26T11:24:59.930Z,7.10
2019-06-26T11:26:35.183Z,7.50
2019-06-26T11:28:09.801Z,7.10
2019-06-26T11:29:45.015Z,7.37
2019-06-26T11:31:19.645Z,8.27
2019-06-26T11:32:54.948Z,7.13
2019-06-26T11:34:29.588Z,8.37
2019-06-26T11:36:04.889Z,6.67
2019-06-26T11:37:39.522Z,8.57
2019-06-26T11:39:14.744Z,9.33
2019-06-26T11:40:49.401Z,6.60
2019-06-26T11:42:24.927Z,7.10
2019-06-26T11:43:59.576Z,6.47
2019-06-26T11:45:34.809Z,6.50
2019-06-26T11:47:09.453Z,5.33
2019-06-26T11:48:45.739Z,6.30
2019-06-26T11:50:20.730Z,7.10
2019-06-26T11:51:55.965Z,6.90
2019-06-26T11:53:30.664Z,6.77
2019-06-26T11:55:06.670Z,6.67
2019-06-26T11:56:41.388Z,7.30
2019-06-26T11:58:16.638Z,7.50
2019-06-26T11:59:51.314Z,7.93
2019-06-26T12:01:26.564Z,7.83
2019-06-26T12:03:01.235Z,8.23
2019-06-26T12:04:36.467Z,6.50
2019-06-26T12:06:18.568Z,7.50
2019-06-26T12:07:48.028Z,7.30
2019-06-26T12:09:22.719Z,9.33
2019-06-26T12:10:57.952Z,7.53
2019-06-26T12:12:32.588Z,8.57
2019-06-26T12:14:07.837Z,7.93
2019-06-26T12:15:42.478Z,8.70
2019-06-26T12:17:17.675Z,8.20
2019-06-26T12:18:52.327Z,8.60
2019-06-26T12:20:29.221Z,7.80
2019-06-26T12:22:04.269Z,8.30
2019-06-26T12:23:39.524Z,7.70
2019-06-26T12:25:14.551Z,7.80
2019-06-26T12:26:49.762Z,8.00
2019-06-26T12:28:24.438Z,8.63
2019-06-26T12:29:59.652Z,8.43
2019-06-26T12:31:34.308Z,7.97
2019-06-26T12:33:09.518Z,8.20
2019-06-26T12:34:45.369Z,7.33
2019-06-26T12:36:20.777Z,7.80
2019-06-26T12:37:55.446Z,7.53
2019-06-26T12:39:30.817Z,8.03
2019-06-26T12:41:05.474Z,7.80
2019-06-26T12:42:40.752Z,7.43
2019-06-26T12:44:15.401Z,7.20
2019-06-26T12:45:50.607Z,7.53
2019-06-26T12:47:25.299Z,8.17
2019-06-26T12:49:00.737Z,7.80
2019-06-26T12:50:36.323Z,7.33
2019-06-26T12:52:11.678Z,7.93
2019-06-26T12:53:46.386Z,7.33
2019-06-26T12:55:21.665Z,7.83
2019-06-26T12:56:56.359Z,8.20
2019-06-26T12:58:31.660Z,7.90
2019-06-26T13:00:07.911Z,7.53
2019-06-26T13:01:43.133Z,7.53
2019-06-26T13:03:18.194Z,7.63
2019-06-26T13:04:53.435Z,8.17
2019-06-26T13:06:28.147Z,7.87
2019-06-26T13:08:03.377Z,7.63
2019-06-26T13:09:38.013Z,8.03
2019-06-26T13:11:13.236Z,7.40
2019-06-26T13:12:47.871Z,7.20
2019-06-26T13:14:23.124Z,7.90
2019-06-26T13:15:57.804Z,8.07
2019-06-26T13:17:33.037Z,7.50
2019-06-26T13:19:07.759Z,6.83
2019-06-26T13:20:52.865Z,7.27
2019-06-26T13:22:19.446Z,7.87
2019-06-26T13:23:54.713Z,7.90
2019-06-26T13:25:29.357Z,8.13
2019-06-26T13:27:04.639Z,9.63
2019-06-26T13:28:39.387Z,8.40
2019-06-26T13:30:14.811Z,8.00
2019-06-26T13:31:49.600Z,7.97
2019-06-26T13:33:24.998Z,7.60
2019-06-26T13:34:59.664Z,7.33
2019-06-26T13:36:34.878Z,9.03
2019-06-26T13:38:10.514Z,8.93
2019-06-26T13:39:45.737Z,8.47
2019-06-26T13:41:22.045Z,7.33
2019-06-26T13:42:57.358Z,7.73
2019-06-26T13:44:32.020Z,7.17
2019-06-26T13:46:07.227Z,6.87
2019-06-26T13:47:41.902Z,6.50
2019-06-26T13:49:17.156Z,6.60
2019-06-26T13:51:04.968Z,6.53
2019-06-26T13:52:29.083Z,6.77
2019-06-26T13:54:03.827Z,6.53
2019-06-26T13:55:39.400Z,6.57
2019-06-26T13:57:15.863Z,7.13
2019-06-26T13:58:51.213Z,6.53
2019-06-26T14:00:25.917Z,8.93
2019-06-26T14:02:01.245Z,6.30
2019-06-26T14:03:35.922Z,5.47
2019-06-26T14:05:11.602Z,5.67
2019-06-26T14:06:46.373Z,6.00
2019-06-26T14:08:21.570Z,5.47
2019-06-26T14:09:56.207Z,6.00
2019-06-26T14:11:31.407Z,5.53
2019-06-26T14:13:06.052Z,5.33
2019-06-26T14:14:56.805Z,5.87
2019-06-26T14:16:18.016Z,5.20
2019-06-26T14:17:53.251Z,5.83
2019-06-26T14:19:27.927Z,6.77
2019-06-26T14:21:03.222Z,6.90
2019-06-26T14:22:37.939Z,5.33
2019-06-26T14:24:13.152Z,5.40
2019-06-26T14:25:47.789Z,5.93
2019-06-26T14:27:23.021Z,4.83
2019-06-26T14:28:57.697Z,7.03
2019-06-26T14:30:33.899Z,5.43
2019-06-26T14:32:08.539Z,5.33
2019-06-26T14:33:43.796Z,5.20
2019-06-26T14:35:18.789Z,5.83
2019-06-26T14:36:54.105Z,5.43
2019-06-26T14:38:28.760Z,5.10
2019-06-26T14:40:04.183Z,5.60
2019-06-26T14:41:39.323Z,6.10
2019-06-26T14:43:14.834Z,6.57
2019-06-26T14:44:52.613Z,7.10
2019-06-26T14:46:26.410Z,5.17
2019-06-26T14:48:01.043Z,5.00
2019-06-26T14:49:36.287Z,5.10
2019-06-26T14:51:10.948Z,4.77
2019-06-26T14:52:46.230Z,6.13
2019-06-26T14:54:20.851Z,5.20
2019-06-26T14:55:56.169Z,5.50
2019-06-26T14:57:30.807Z,5.83
2019-06-26T14:59:06.091Z,5.77
2019-06-26T15:00:40.734Z,6.43
2019-06-26T15:02:15.962Z,5.93
2019-06-26T15:03:50.735Z,5.97
2019-06-26T15:05:25.959Z,6.90
2019-06-26T15:07:00.608Z,8.10
2019-06-26T15:08:35.812Z,5.93
2019-06-26T15:10:10.713Z,6.50
2019-06-26T15:11:45.969Z,5.23
2019-06-26T15:13:20.631Z,5.70
2019-06-26T15:14:55.868Z,5.57
2019-06-26T15:16:30.660Z,6.23
2019-06-26T15:18:06.016Z,7.07
2019-06-26T15:19:40.914Z,6.73
2019-06-26T15:21:16.145Z,5.33
2019-06-26T15:22:50.806Z,7.33
2019-06-26T15:24:26.081Z,5.57
2019-06-26T15:26:00.723Z,8.17
2019-06-26T15:27:36.956Z,5.70
2019-06-26T15:29:11.571Z,7.70
2019-06-26T15:30:46.960Z,6.03
2019-06-26T15:32:21.603Z,6.10
2019-06-26T15:33:56.955Z,8.97
2019-06-26T15:35:31.723Z,9.33
2019-06-26T15:37:07.029Z,8.27
2019-06-26T15:38:41.683Z,10.40
2019-06-26T15:40:17.137Z,6.43
2019-06-26T15:41:51.767Z,5.63
2019-06-26T15:43:27.029Z,6.70
2019-06-26T15:45:01.696Z,8.30
2019-06-26T15:46:36.940Z,5.87
2019-06-26T15:48:12.667Z,8.60
2019-06-26T15:49:47.934Z,9.83
2019-06-26T15:51:22.572Z,5.70
2019-06-26T15:52:57.793Z,9.67
2019-06-26T15:54:32.442Z,8.47
2019-06-26T15:56:07.664Z,9.43
2019-06-26T15:57:42.284Z,6.03
2019-06-26T15:59:17.541Z,6.50
2019-06-26T16:00:52.161Z,6.13
2019-06-26T16:02:27.409Z,5.70
2019-06-26T16:04:02.065Z,5.90
2019-06-26T16:05:37.331Z,7.87
2019-06-26T16:07:11.957Z,6.27
2019-06-26T16:08:47.204Z,6.90
2019-06-26T16:10:22.323Z,6.90
2019-06-26T16:11:58.982Z,6.57
2019-06-26T16:13:33.844Z,6.30
2019-06-26T16:15:10.152Z,5.97
2019-06-26T16:16:46.427Z,5.90
2019-06-26T16:18:43.015Z,5.60
2019-06-26T16:20:19.020Z,5.43
2019-06-26T16:21:53.660Z,5.93
2019-06-26T16:23:29.048Z,6.13
2019-06-26T16:25:04.303Z,5.37
2019-06-26T16:26:39.552Z,8.13
2019-06-26T16:28:14.195Z,6.77
2019-06-26T16:29:49.417Z,5.70
2019-06-26T16:31:24.072Z,5.60
2019-06-26T16:32:59.304Z,5.17
2019-06-26T16:34:33.992Z,5.43
2019-06-26T16:36:09.451Z,5.87
2019-06-26T16:37:44.301Z,5.60
2019-06-26T16:39:19.528Z,4.70
2019-06-26T16:40:54.174Z,5.47
2019-06-26T16:42:29.459Z,7.20
2019-06-26T16:44:05.318Z,5.73
2019-06-26T16:45:40.548Z,7.13
2019-06-26T16:47:15.189Z,7.27
2019-06-26T16:48:50.431Z,7.10
2019-06-26T16:50:25.149Z,6.50
2019-06-26T16:52:00.429Z,6.73
2019-06-26T16:53:35.708Z,5.83
2019-06-26T16:55:11.592Z,5.53
2019-06-26T16:56:46.240Z,4.37
2019-06-26T16:58:21.464Z,5.17
2019-06-26T17:00:08.795Z,5.00
2019-06-26T17:01:34.769Z,5.73
2019-06-26T17:03:09.514Z,5.33
2019-06-26T17:04:44.779Z,5.13
2019-06-26T17:06:19.373Z,5.17
2019-06-26T17:07:55.572Z,7.27
2019-06-26T17:09:30.374Z,5.27
2019-06-26T17:11:05.676Z,5.00
2019-06-26T17:12:40.282Z,5.47
2019-06-26T17:14:16.301Z,4.87
2019-06-26T17:15:50.992Z,6.70
2019-06-26T17:17:26.242Z,6.50
2019-06-26T17:19:00.911Z,5.37
2019-06-26T17:20:36.224Z,5.00
2019-06-26T17:22:10.875Z,4.77
2019-06-26T17:23:46.106Z,4.30
2019-06-26T17:25:20.740Z,4.43
2019-06-26T17:26:59.307Z,5.70
2019-06-26T17:28:32.396Z,3.53
2019-06-26T17:30:08.130Z,3.33
2019-06-26T17:31:42.758Z,3.53
2019-06-26T17:33:17.996Z,4.97
2019-06-26T17:34:52.645Z,3.00
2019-06-26T17:36:28.895Z,3.00
2019-06-26T17:38:03.681Z,3.83
2019-06-26T17:39:38.940Z,4.57
2019-06-26T17:41:13.586Z,4.13
2019-06-26T17:42:48.837Z,4.40
2019-06-26T17:44:23.471Z,6.70
2019-06-26T17:45:58.708Z,4.30
2019-06-26T17:47:33.387Z,4.07
2019-06-26T17:49:08.619Z,6.73
2019-06-26T17:50:44.350Z,2.83
2019-06-26T17:52:19.610Z,6.03
2019-06-26T17:53:54.246Z,6.93
2019-06-26T17:55:29.507Z,5.20
2019-06-26T17:57:04.137Z,6.70
2019-06-26T17:58:39.399Z,4.50
2019-06-26T18:00:14.426Z,4.27
2019-06-26T18:01:49.696Z,2.70
2019-06-26T18:03:24.323Z,3.77
2019-06-26T18:04:59.553Z,3.70
2019-06-26T18:06:34.200Z,4.10
2019-06-26T18:08:10.177Z,3.13
2019-06-26T18:09:44.842Z,4.53
2019-06-26T18:11:20.164Z,4.37
2019-06-26T18:12:54.794Z,3.00
2019-06-26T18:14:30.390Z,4.73
2019-06-26T18:16:05.344Z,6.57
2019-06-26T18:17:44.082Z,5.93
2019-06-26T18:19:18.913Z,3.60
2019-06-26T18:20:55.313Z,7.40
2019-06-26T18:22:31.446Z,7.47
2019-06-26T18:24:08.083Z,3.80
2019-06-26T18:25:53.543Z,3.33
2019-06-26T18:27:21.555Z,5.13
2019-06-26T18:28:56.381Z,3.23
2019-06-26T18:30:34.749Z,4.43
2019-06-26T18:32:10.899Z,3.40
2019-06-26T18:33:47.580Z,6.47
2019-06-26T18:35:22.467Z,4.90
2019-06-26T18:36:59.361Z,5.53
2019-06-26T18:38:36.187Z,6.83
2019-06-26T18:40:13.515Z,5.00
2019-06-26T18:41:48.383Z,5.57
2019-06-26T18:43:23.635Z,4.07
2019-06-26T18:44:58.319Z,6.17
2019-06-26T18:46:33.516Z,4.53
2019-06-26T18:48:08.164Z,4.90
2019-06-26T18:49:43.463Z,4.80
2019-06-26T18:51:18.257Z,3.63
2019-06-26T18:52:53.488Z,10.07
2019-06-26T18:54:28.152Z,3.53
2019-06-26T18:56:03.448Z,6.47
2019-06-26T18:57:38.073Z,5.03
2019-06-26T18:59:13.289Z,5.93
2019-06-26T19:00:47.970Z,6.13
2019-06-26T19:02:23.171Z,4.57
2019-06-26T19:03:57.828Z,5.10
2019-06-26T19:05:33.071Z,5.27
2019-06-26T19:07:07.708Z,6.43
2019-06-26T19:08:42.976Z,8.27
2019-06-26T19:10:17.632Z,8.37
2019-06-26T19:11:52.862Z,5.37
2019-06-26T19:13:27.489Z,7.13
2019-06-26T19:15:02.721Z,5.83
2019-06-26T19:16:37.449Z,6.93
2019-06-26T19:18:12.661Z,6.70
2019-06-26T19:19:47.309Z,7.37
2019-06-26T19:21:22.518Z,10.70
2019-06-26T19:22:57.177Z,6.60
2019-06-26T19:24:32.390Z,12.50
2019-06-26T19:26:07.118Z,7.37
2019-06-26T19:27:42.363Z,8.07
2019-06-26T19:29:17.076Z,7.20
2019-06-26T19:30:52.487Z,5.77
2019-06-26T19:32:27.109Z,6.40
2019-06-26T19:34:02.346Z,6.33
2019-06-26T19:35:38.175Z,7.47
2019-06-26T19:37:13.742Z,7.07
2019-06-26T19:38:48.438Z,6.33
2019-06-26T19:40:24.254Z,6.27
2019-06-26T19:41:59.171Z,9.47
2019-06-26T19:43:34.425Z,6.93
2019-06-26T19:45:10.823Z,6.67
2019-06-26T19:46:46.035Z,4.70
2019-06-26T19:48:20.690Z,6.83
2019-06-26T19:49:55.914Z,6.23
2019-06-26T19:51:30.694Z,9.20
2019-06-26T19:53:05.941Z,4.67
2019-06-26T19:54:40.593Z,6.20
2019-06-26T19:56:15.820Z,7.43
2019-06-26T19:57:50.516Z,6.30
2019-06-26T19:59:25.763Z,5.30
2019-06-26T20:01:00.413Z,9.60
2019-06-26T20:02:36.707Z,5.53
2019-06-26T20:04:11.335Z,8.23
2019-06-26T20:05:46.793Z,8.30
2019-06-26T20:07:21.549Z,7.57
2019-06-26T20:08:57.730Z,7.27
2019-06-26T20:10:33.487Z,8.60
2019-06-26T20:12:08.724Z,10.30
2019-06-26T20:13:43.377Z,8.40
2019-06-26T20:15:18.765Z,5.03
2019-06-26T20:16:53.535Z,6.37
2019-06-26T20:18:28.704Z,6.20
2019-06-26T20:20:03.778Z,6.33
2019-06-26T20:21:38.978Z,8.57
2019-06-26T20:23:13.680Z,10.90
2019-06-26T20:24:49.302Z,5.30
2019-06-26T20:26:23.941Z,5.03
2019-06-26T20:27:59.141Z,6.00
2019-06-26T20:29:33.758Z,6.33
2019-06-26T20:31:08.985Z,4.50
2019-06-26T20:32:43.639Z,4.77
2019-06-26T20:34:18.852Z,7.63
2019-06-26T20:35:53.557Z,6.00
2019-06-26T20:37:29.066Z,4.73
2019-06-26T20:39:03.916Z,3.93
2019-06-26T20:40:40.504Z,5.57
2019-06-26T20:42:15.182Z,7.47
2019-06-26T20:43:50.433Z,4.57
2019-06-26T20:45:25.219Z,5.93
2019-06-26T20:47:00.461Z,4.40
2019-06-26T20:48:35.092Z,4.70
2019-06-26T20:50:12.050Z,5.23
2019-06-26T20:51:46.735Z,6.50
2019-06-26T20:53:21.957Z,4.27
2019-06-26T20:55:02.040Z,6.40
2019-06-26T20:56:33.539Z,4.63
2019-06-26T20:58:08.180Z,5.00
2019-06-26T20:59:43.387Z,3.80
2019-06-26T21:01:18.052Z,3.80
2019-06-26T21:02:54.397Z,5.00
2019-06-26T21:04:29.227Z,5.07